sensor_id;sensor_type;location;lat;lon;timestamp;P1;durP1;ratioP1;P2;durP2;ratioP2
61905;SDS011;47863;55.766;37.672;2023-04-24T00:02:15;12.05;;;4.90;;
61905;SDS011;47863;55.766;37.672;2023-04-24T00:04:41;13.10;;;5.05;;
61905;SDS011;47863;55.766;37.672;2023-04-24T00:07:10;11.43;;;5.55;;
61905;SDS011;47863;55.766;37.672;2023-04-24T00:09:36;14.18;;;5.05;;
61905;SDS011;47863;55.766;37.672;2023-04-24T00:12:02;11.88;;;4.95;;
61905;SDS011;47863;55.766;37.672;2023-04-24T00:14:30;10.88;;;5.05;;
61905;SDS011;47863;55.766;37.672;2023-04-24T00:16:56;8.30;;;4.63;;
61905;SDS011;47863;55.766;37.672;2023-04-24T00:19:22;9.18;;;4.47;;
61905;SDS011;47863;55.766;37.672;2023-04-24T00:21:47;11.27;;;4.65;;
61905;SDS011;47863;55.766;37.672;2023-04-24T00:24:16;9.48;;;5.20;;
61905;SDS011;47863;55.766;37.672;2023-04-24T00:26:42;11.02;;;5.30;;
61905;SDS011;47863;55.766;37.672;2023-04-24T00:29:08;13.52;;;6.25;;
61905;SDS011;47863;55.766;37.672;2023-04-24T00:31:34;16.58;;;5.13;;
61905;SDS011;47863;55.766;37.672;2023-04-24T00:34:00;15.18;;;5.90;;
61905;SDS011;47863;55.766;37.672;2023-04-24T00:36:27;19.45;;;6.93;;
61905;SDS011;47863;55.766;37.672;2023-04-24T00:38:53;12.88;;;5.13;;
61905;SDS011;47863;55.766;37.672;2023-04-24T00:41:19;13.27;;;5.25;;
61905;SDS011;47863;55.766;37.672;2023-04-24T00:43:46;14.70;;;5.68;;
61905;SDS011;47863;55.766;37.672;2023-04-24T00:46:12;11.68;;;4.82;;
61905;SDS011;47863;55.766;37.672;2023-04-24T00:48:39;10.45;;;5.22;;
61905;SDS011;47863;55.766;37.672;2023-04-24T00:51:05;15.02;;;5.50;;
61905;SDS011;47863;55.766;37.672;2023-04-24T00:53:31;10.95;;;4.97;;
61905;SDS011;47863;55.766;37.672;2023-04-24T00:55:57;17.05;;;6.18;;
61905;SDS011;47863;55.766;37.672;2023-04-24T00:58:23;14.98;;;5.40;;
61905;SDS011;47863;55.766;37.672;2023-04-24T01:00:49;13.13;;;4.75;;
61905;SDS011;47863;55.766;37.672;2023-04-24T01:03:19;13.48;;;5.65;;
61905;SDS011;47863;55.766;37.672;2023-04-24T01:05:47;14.95;;;5.75;;
61905;SDS011;47863;55.766;37.672;2023-04-24T01:08:14;16.55;;;5.80;;
61905;SDS011;47863;55.766;37.672;2023-04-24T01:10:41;15.05;;;5.63;;
61905;SDS011;47863;55.766;37.672;2023-04-24T01:13:07;11.63;;;6.40;;
61905;SDS011;47863;55.766;37.672;2023-04-24T01:15:34;11.25;;;5.97;;
61905;SDS011;47863;55.766;37.672;2023-04-24T01:18:00;13.88;;;6.03;;
61905;SDS011;47863;55.766;37.672;2023-04-24T01:20:26;13.02;;;5.47;;
61905;SDS011;47863;55.766;37.672;2023-04-24T01:22:52;12.82;;;5.35;;
61905;SDS011;47863;55.766;37.672;2023-04-24T01:25:20;13.15;;;6.28;;
61905;SDS011;47863;55.766;37.672;2023-04-24T01:27:46;11.55;;;5.25;;
61905;SDS011;47863;55.766;37.672;2023-04-24T01:30:12;12.27;;;5.47;;
61905;SDS011;47863;55.766;37.672;2023-04-24T01:32:38;14.70;;;5.30;;
61905;SDS011;47863;55.766;37.672;2023-04-24T01:35:05;11.05;;;5.43;;
61905;SDS011;47863;55.766;37.672;2023-04-24T01:37:31;13.82;;;5.00;;
61905;SDS011;47863;55.766;37.672;2023-04-24T01:39:58;12.38;;;5.50;;
61905;SDS011;47863;55.766;37.672;2023-04-24T01:42:24;18.25;;;5.32;;
61905;SDS011;47863;55.766;37.672;2023-04-24T01:44:50;11.02;;;5.57;;
61905;SDS011;47863;55.766;37.672;2023-04-24T01:47:16;13.77;;;5.10;;
61905;SDS011;47863;55.766;37.672;2023-04-24T01:49:42;11.82;;;5.05;;
61905;SDS011;47863;55.766;37.672;2023-04-24T01:52:07;13.98;;;5.53;;
61905;SDS011;47863;55.766;37.672;2023-04-24T01:54:33;12.48;;;5.20;;
61905;SDS011;47863;55.766;37.672;2023-04-24T01:56:59;12.57;;;5.07;;
61905;SDS011;47863;55.766;37.672;2023-04-24T01:59:26;14.40;;;6.03;;
61905;SDS011;47863;55.766;37.672;2023-04-24T02:01:53;13.50;;;4.95;;
61905;SDS011;47863;55.766;37.672;2023-04-24T02:04:19;15.27;;;5.72;;
61905;SDS011;47863;55.766;37.672;2023-04-24T02:06:44;8.50;;;4.82;;
61905;SDS011;47863;55.766;37.672;2023-04-24T02:09:10;15.20;;;5.03;;
61905;SDS011;47863;55.766;37.672;2023-04-24T02:11:36;13.07;;;5.38;;
61905;SDS011;47863;55.766;37.672;2023-04-24T02:14:02;12.48;;;5.28;;
61905;SDS011;47863;55.766;37.672;2023-04-24T02:16:28;10.27;;;4.75;;
61905;SDS011;47863;55.766;37.672;2023-04-24T02:18:58;14.23;;;5.53;;
61905;SDS011;47863;55.766;37.672;2023-04-24T02:21:24;11.50;;;5.63;;
61905;SDS011;47863;55.766;37.672;2023-04-24T02:23:50;12.45;;;4.93;;
61905;SDS011;47863;55.766;37.672;2023-04-24T02:26:15;10.73;;;5.38;;
61905;SDS011;47863;55.766;37.672;2023-04-24T02:28:41;10.45;;;5.10;;
61905;SDS011;47863;55.766;37.672;2023-04-24T02:31:07;14.75;;;5.63;;
61905;SDS011;47863;55.766;37.672;2023-04-24T02:33:32;8.98;;;5.18;;
61905;SDS011;47863;55.766;37.672;2023-04-24T02:35:58;11.45;;;4.90;;
61905;SDS011;47863;55.766;37.672;2023-04-24T02:38:24;9.68;;;4.88;;
61905;SDS011;47863;55.766;37.672;2023-04-24T02:40:50;14.93;;;5.88;;
61905;SDS011;47863;55.766;37.672;2023-04-24T02:43:15;10.82;;;5.18;;
61905;SDS011;47863;55.766;37.672;2023-04-24T02:45:41;15.10;;;6.10;;
61905;SDS011;47863;55.766;37.672;2023-04-24T02:48:07;10.48;;;5.00;;
61905;SDS011;47863;55.766;37.672;2023-04-24T02:50:32;11.70;;;6.10;;
61905;SDS011;47863;55.766;37.672;2023-04-24T02:52:58;12.70;;;5.03;;
61905;SDS011;47863;55.766;37.672;2023-04-24T02:55:24;14.05;;;6.18;;
61905;SDS011;47863;55.766;37.672;2023-04-24T02:57:50;13.32;;;5.43;;
61905;SDS011;47863;55.766;37.672;2023-04-24T03:00:16;12.38;;;5.22;;
61905;SDS011;47863;55.766;37.672;2023-04-24T03:02:41;17.17;;;5.47;;
61905;SDS011;47863;55.766;37.672;2023-04-24T03:05:07;11.45;;;5.30;;
61905;SDS011;47863;55.766;37.672;2023-04-24T03:07:34;10.10;;;4.60;;
61905;SDS011;47863;55.766;37.672;2023-04-24T03:09:59;11.32;;;5.15;;
61905;SDS011;47863;55.766;37.672;2023-04-24T03:12:25;13.60;;;6.38;;
61905;SDS011;47863;55.766;37.672;2023-04-24T03:14:51;13.73;;;5.20;;
61905;SDS011;47863;55.766;37.672;2023-04-24T03:17:16;10.40;;;4.53;;
61905;SDS011;47863;55.766;37.672;2023-04-24T03:19:42;10.88;;;5.03;;
61905;SDS011;47863;55.766;37.672;2023-04-24T03:22:07;11.93;;;5.95;;
61905;SDS011;47863;55.766;37.672;2023-04-24T03:24:34;12.30;;;6.63;;
61905;SDS011;47863;55.766;37.672;2023-04-24T03:27:00;9.18;;;5.20;;
61905;SDS011;47863;55.766;37.672;2023-04-24T03:29:25;15.63;;;6.40;;
61905;SDS011;47863;55.766;37.672;2023-04-24T03:31:51;11.90;;;5.63;;
61905;SDS011;47863;55.766;37.672;2023-04-24T03:34:16;13.95;;;5.35;;
61905;SDS011;47863;55.766;37.672;2023-04-24T03:36:42;13.20;;;5.90;;
61905;SDS011;47863;55.766;37.672;2023-04-24T03:39:08;14.60;;;6.30;;
61905;SDS011;47863;55.766;37.672;2023-04-24T03:41:33;10.60;;;5.53;;
61905;SDS011;47863;55.766;37.672;2023-04-24T03:43:59;10.20;;;4.90;;
61905;SDS011;47863;55.766;37.672;2023-04-24T03:46:25;13.23;;;5.93;;
61905;SDS011;47863;55.766;37.672;2023-04-24T03:48:51;12.10;;;5.93;;
61905;SDS011;47863;55.766;37.672;2023-04-24T03:51:16;11.43;;;5.93;;
61905;SDS011;47863;55.766;37.672;2023-04-24T03:53:42;13.18;;;5.47;;
61905;SDS011;47863;55.766;37.672;2023-04-24T03:56:08;13.25;;;4.95;;
61905;SDS011;47863;55.766;37.672;2023-04-24T03:58:33;13.88;;;5.88;;
61905;SDS011;47863;55.766;37.672;2023-04-24T04:00:59;16.90;;;6.63;;
61905;SDS011;47863;55.766;37.672;2023-04-24T04:03:25;13.55;;;6.15;;
61905;SDS011;47863;55.766;37.672;2023-04-24T04:05:51;10.63;;;5.68;;
61905;SDS011;47863;55.766;37.672;2023-04-24T04:08:17;10.15;;;5.82;;
61905;SDS011;47863;55.766;37.672;2023-04-24T04:10:42;10.40;;;5.80;;
61905;SDS011;47863;55.766;37.672;2023-04-24T04:13:08;12.70;;;6.68;;
61905;SDS011;47863;55.766;37.672;2023-04-24T04:15:33;11.48;;;6.63;;
61905;SDS011;47863;55.766;37.672;2023-04-24T04:17:59;10.10;;;5.80;;
61905;SDS011;47863;55.766;37.672;2023-04-24T04:20:25;17.25;;;6.70;;
61905;SDS011;47863;55.766;37.672;2023-04-24T04:22:50;11.25;;;6.22;;
61905;SDS011;47863;55.766;37.672;2023-04-24T04:25:16;9.57;;;5.97;;
61905;SDS011;47863;55.766;37.672;2023-04-24T04:27:46;11.88;;;5.68;;
61905;SDS011;47863;55.766;37.672;2023-04-24T04:30:14;12.20;;;5.95;;
61905;SDS011;47863;55.766;37.672;2023-04-24T04:32:40;12.18;;;5.93;;
61905;SDS011;47863;55.766;37.672;2023-04-24T04:35:06;12.82;;;6.22;;
61905;SDS011;47863;55.766;37.672;2023-04-24T04:37:32;13.90;;;5.70;;
61905;SDS011;47863;55.766;37.672;2023-04-24T04:39:58;10.55;;;6.10;;
61905;SDS011;47863;55.766;37.672;2023-04-24T04:42:25;14.70;;;6.57;;
61905;SDS011;47863;55.766;37.672;2023-04-24T04:44:52;16.63;;;6.47;;
61905;SDS011;47863;55.766;37.672;2023-04-24T04:47:18;12.27;;;6.35;;
61905;SDS011;47863;55.766;37.672;2023-04-24T04:49:48;13.85;;;7.25;;
61905;SDS011;47863;55.766;37.672;2023-04-24T04:52:14;14.05;;;7.53;;
61905;SDS011;47863;55.766;37.672;2023-04-24T04:54:39;11.73;;;5.57;;
61905;SDS011;47863;55.766;37.672;2023-04-24T04:57:05;13.48;;;7.30;;
61905;SDS011;47863;55.766;37.672;2023-04-24T04:59:31;11.52;;;7.43;;
61905;SDS011;47863;55.766;37.672;2023-04-24T05:01:57;10.98;;;6.30;;
61905;SDS011;47863;55.766;37.672;2023-04-24T05:04:22;11.30;;;7.25;;
61905;SDS011;47863;55.766;37.672;2023-04-24T05:06:48;10.95;;;6.47;;
61905;SDS011;47863;55.766;37.672;2023-04-24T05:09:16;12.43;;;7.32;;
61905;SDS011;47863;55.766;37.672;2023-04-24T05:11:41;12.50;;;6.72;;
61905;SDS011;47863;55.766;37.672;2023-04-24T05:14:07;14.30;;;7.68;;
61905;SDS011;47863;55.766;37.672;2023-04-24T05:16:33;9.77;;;6.18;;
61905;SDS011;47863;55.766;37.672;2023-04-24T05:18:58;13.05;;;7.45;;
61905;SDS011;47863;55.766;37.672;2023-04-24T05:21:24;13.13;;;6.78;;
61905;SDS011;47863;55.766;37.672;2023-04-24T05:23:50;15.27;;;6.47;;
61905;SDS011;47863;55.766;37.672;2023-04-24T05:26:15;13.95;;;6.30;;
61905;SDS011;47863;55.766;37.672;2023-04-24T05:28:41;15.38;;;7.40;;
61905;SDS011;47863;55.766;37.672;2023-04-24T05:31:07;11.18;;;6.15;;
61905;SDS011;47863;55.766;37.672;2023-04-24T05:33:32;11.90;;;7.55;;
61905;SDS011;47863;55.766;37.672;2023-04-24T05:35:58;12.57;;;7.05;;
61905;SDS011;47863;55.766;37.672;2023-04-24T05:38:24;14.68;;;8.18;;
61905;SDS011;47863;55.766;37.672;2023-04-24T05:40:49;14.15;;;7.93;;
61905;SDS011;47863;55.766;37.672;2023-04-24T05:43:15;11.00;;;6.57;;
61905;SDS011;47863;55.766;37.672;2023-04-24T05:45:41;11.27;;;6.88;;
61905;SDS011;47863;55.766;37.672;2023-04-24T05:48:06;14.85;;;7.25;;
61905;SDS011;47863;55.766;37.672;2023-04-24T05:50:32;13.55;;;8.10;;
61905;SDS011;47863;55.766;37.672;2023-04-24T05:52:57;16.13;;;7.13;;
61905;SDS011;47863;55.766;37.672;2023-04-24T05:55:24;13.45;;;6.93;;
61905;SDS011;47863;55.766;37.672;2023-04-24T05:57:50;13.93;;;8.45;;
61905;SDS011;47863;55.766;37.672;2023-04-24T06:00:16;15.27;;;6.88;;
61905;SDS011;47863;55.766;37.672;2023-04-24T06:02:44;12.00;;;6.25;;
61905;SDS011;47863;55.766;37.672;2023-04-24T06:05:10;14.10;;;7.55;;
61905;SDS011;47863;55.766;37.672;2023-04-24T06:07:38;12.30;;;7.22;;
61905;SDS011;47863;55.766;37.672;2023-04-24T06:10:04;14.30;;;7.35;;
61905;SDS011;47863;55.766;37.672;2023-04-24T06:12:30;13.98;;;7.95;;
61905;SDS011;47863;55.766;37.672;2023-04-24T06:14:56;11.70;;;6.95;;
61905;SDS011;47863;55.766;37.672;2023-04-24T06:17:21;13.07;;;6.30;;
61905;SDS011;47863;55.766;37.672;2023-04-24T06:19:47;13.35;;;6.68;;
61905;SDS011;47863;55.766;37.672;2023-04-24T06:22:13;11.40;;;7.28;;
61905;SDS011;47863;55.766;37.672;2023-04-24T06:24:39;9.20;;;6.20;;
61905;SDS011;47863;55.766;37.672;2023-04-24T06:27:05;10.15;;;6.72;;
61905;SDS011;47863;55.766;37.672;2023-04-24T06:29:31;12.60;;;6.45;;
61905;SDS011;47863;55.766;37.672;2023-04-24T06:31:58;7.63;;;5.40;;
61905;SDS011;47863;55.766;37.672;2023-04-24T06:34:24;13.93;;;7.43;;
61905;SDS011;47863;55.766;37.672;2023-04-24T06:36:49;15.68;;;7.55;;
61905;SDS011;47863;55.766;37.672;2023-04-24T06:39:15;12.20;;;7.18;;
61905;SDS011;47863;55.766;37.672;2023-04-24T06:41:40;10.07;;;6.88;;
61905;SDS011;47863;55.766;37.672;2023-04-24T06:44:06;12.48;;;5.80;;
61905;SDS011;47863;55.766;37.672;2023-04-24T06:46:32;11.65;;;5.93;;
61905;SDS011;47863;55.766;37.672;2023-04-24T06:48:58;10.63;;;6.43;;
61905;SDS011;47863;55.766;37.672;2023-04-24T06:51:23;10.70;;;5.45;;
61905;SDS011;47863;55.766;37.672;2023-04-24T06:53:50;8.10;;;5.88;;
61905;SDS011;47863;55.766;37.672;2023-04-24T06:56:17;14.45;;;9.10;;
61905;SDS011;47863;55.766;37.672;2023-04-24T06:58:42;9.35;;;6.97;;
61905;SDS011;47863;55.766;37.672;2023-04-24T07:01:09;9.43;;;5.72;;
61905;SDS011;47863;55.766;37.672;2023-04-24T07:03:35;6.50;;;3.97;;
61905;SDS011;47863;55.766;37.672;2023-04-24T07:06:01;8.48;;;4.97;;
61905;SDS011;47863;55.766;37.672;2023-04-24T07:08:28;10.95;;;4.85;;
61905;SDS011;47863;55.766;37.672;2023-04-24T07:10:55;7.47;;;5.07;;
61905;SDS011;47863;55.766;37.672;2023-04-24T07:13:22;8.45;;;5.28;;
61905;SDS011;47863;55.766;37.672;2023-04-24T07:15:48;7.15;;;4.85;;
61905;SDS011;47863;55.766;37.672;2023-04-24T07:18:16;9.23;;;5.28;;
61905;SDS011;47863;55.766;37.672;2023-04-24T07:20:42;8.55;;;5.38;;
61905;SDS011;47863;55.766;37.672;2023-04-24T07:23:08;7.53;;;5.07;;
61905;SDS011;47863;55.766;37.672;2023-04-24T07:25:33;12.93;;;6.13;;
61905;SDS011;47863;55.766;37.672;2023-04-24T07:27:59;6.93;;;5.00;;
61905;SDS011;47863;55.766;37.672;2023-04-24T07:30:25;7.53;;;4.50;;
61905;SDS011;47863;55.766;37.672;2023-04-24T07:32:50;6.13;;;4.05;;
61905;SDS011;47863;55.766;37.672;2023-04-24T07:35:16;10.88;;;4.60;;
61905;SDS011;47863;55.766;37.672;2023-04-24T07:37:42;5.65;;;4.18;;
61905;SDS011;47863;55.766;37.672;2023-04-24T07:40:14;6.60;;;4.45;;
61905;SDS011;47863;55.766;37.672;2023-04-24T07:42:40;7.20;;;4.10;;
61905;SDS011;47863;55.766;37.672;2023-04-24T07:45:06;6.03;;;3.47;;
61905;SDS011;47863;55.766;37.672;2023-04-24T07:47:34;8.55;;;5.93;;
61905;SDS011;47863;55.766;37.672;2023-04-24T07:50:00;8.65;;;4.15;;
61905;SDS011;47863;55.766;37.672;2023-04-24T07:52:25;5.35;;;4.18;;
61905;SDS011;47863;55.766;37.672;2023-04-24T07:54:51;6.55;;;4.03;;
61905;SDS011;47863;55.766;37.672;2023-04-24T07:57:23;5.10;;;3.38;;
61905;SDS011;47863;55.766;37.672;2023-04-24T07:59:50;5.32;;;3.70;;
61905;SDS011;47863;55.766;37.672;2023-04-24T08:02:15;6.78;;;3.75;;
61905;SDS011;47863;55.766;37.672;2023-04-24T08:04:41;5.25;;;3.47;;
61905;SDS011;47863;55.766;37.672;2023-04-24T08:07:07;5.45;;;3.65;;
61905;SDS011;47863;55.766;37.672;2023-04-24T08:09:33;6.88;;;4.20;;
61905;SDS011;47863;55.766;37.672;2023-04-24T08:11:59;7.45;;;4.15;;
61905;SDS011;47863;55.766;37.672;2023-04-24T08:14:24;7.03;;;3.83;;
61905;SDS011;47863;55.766;37.672;2023-04-24T08:16:50;5.40;;;4.03;;
61905;SDS011;47863;55.766;37.672;2023-04-24T08:19:17;7.95;;;3.60;;
61905;SDS011;47863;55.766;37.672;2023-04-24T08:21:43;6.60;;;4.00;;
61905;SDS011;47863;55.766;37.672;2023-04-24T08:24:08;6.35;;;3.42;;
61905;SDS011;47863;55.766;37.672;2023-04-24T08:26:34;5.05;;;3.58;;
61905;SDS011;47863;55.766;37.672;2023-04-24T08:28:59;8.20;;;3.92;;
61905;SDS011;47863;55.766;37.672;2023-04-24T08:31:25;6.07;;;3.67;;
61905;SDS011;47863;55.766;37.672;2023-04-24T08:33:52;5.45;;;3.58;;
61905;SDS011;47863;55.766;37.672;2023-04-24T08:36:17;6.32;;;3.45;;
61905;SDS011;47863;55.766;37.672;2023-04-24T08:38:43;6.55;;;4.03;;
61905;SDS011;47863;55.766;37.672;2023-04-24T08:41:08;6.28;;;4.00;;
61905;SDS011;47863;55.766;37.672;2023-04-24T08:43:34;5.13;;;3.40;;
61905;SDS011;47863;55.766;37.672;2023-04-24T08:46:03;4.68;;;3.55;;
61905;SDS011;47863;55.766;37.672;2023-04-24T08:48:29;4.80;;;3.45;;
61905;SDS011;47863;55.766;37.672;2023-04-24T08:50:57;5.30;;;3.88;;
61905;SDS011;47863;55.766;37.672;2023-04-24T08:53:23;6.45;;;4.00;;
61905;SDS011;47863;55.766;37.672;2023-04-24T08:55:54;5.93;;;3.72;;
61905;SDS011;47863;55.766;37.672;2023-04-24T08:58:21;5.50;;;3.22;;
61905;SDS011;47863;55.766;37.672;2023-04-24T09:00:47;5.85;;;3.72;;
61905;SDS011;47863;55.766;37.672;2023-04-24T09:03:14;6.45;;;4.00;;
61905;SDS011;47863;55.766;37.672;2023-04-24T09:05:41;4.60;;;3.40;;
61905;SDS011;47863;55.766;37.672;2023-04-24T09:08:11;4.63;;;3.53;;
61905;SDS011;47863;55.766;37.672;2023-04-24T09:10:39;5.75;;;3.50;;
61905;SDS011;47863;55.766;37.672;2023-04-24T09:13:05;4.60;;;3.40;;
61905;SDS011;47863;55.766;37.672;2023-04-24T09:15:34;4.22;;;3.10;;
61905;SDS011;47863;55.766;37.672;2023-04-24T09:18:00;5.93;;;3.67;;
61905;SDS011;47863;55.766;37.672;2023-04-24T09:20:26;4.28;;;2.85;;
61905;SDS011;47863;55.766;37.672;2023-04-24T09:22:56;4.78;;;3.60;;
61905;SDS011;47863;55.766;37.672;2023-04-24T09:25:24;4.72;;;3.30;;
61905;SDS011;47863;55.766;37.672;2023-04-24T09:27:59;4.82;;;3.35;;
61905;SDS011;47863;55.766;37.672;2023-04-24T09:30:29;4.78;;;3.33;;
61905;SDS011;47863;55.766;37.672;2023-04-24T09:33:14;4.80;;;3.38;;
61905;SDS011;47863;55.766;37.672;2023-04-24T09:35:41;4.25;;;2.92;;
61905;SDS011;47863;55.766;37.672;2023-04-24T09:38:08;4.47;;;3.65;;
61905;SDS011;47863;55.766;37.672;2023-04-24T09:40:35;4.82;;;3.60;;
61905;SDS011;47863;55.766;37.672;2023-04-24T09:43:01;7.35;;;4.40;;
61905;SDS011;47863;55.766;37.672;2023-04-24T09:45:38;6.22;;;4.25;;
61905;SDS011;47863;55.766;37.672;2023-04-24T09:48:05;6.38;;;4.03;;
61905;SDS011;47863;55.766;37.672;2023-04-24T09:50:34;5.72;;;3.75;;
61905;SDS011;47863;55.766;37.672;2023-04-24T09:53:03;8.48;;;3.65;;
61905;SDS011;47863;55.766;37.672;2023-04-24T09:55:30;5.25;;;3.78;;
61905;SDS011;47863;55.766;37.672;2023-04-24T10:00:27;4.38;;;3.28;;
61905;SDS011;47863;55.766;37.672;2023-04-24T10:02:55;5.63;;;3.58;;
61905;SDS011;47863;55.766;37.672;2023-04-24T10:08:05;6.20;;;3.50;;
61905;SDS011;47863;55.766;37.672;2023-04-24T10:10:32;5.25;;;3.83;;
61905;SDS011;47863;55.766;37.672;2023-04-24T10:12:59;3.72;;;2.78;;
61905;SDS011;47863;55.766;37.672;2023-04-24T10:15:26;3.65;;;2.78;;
61905;SDS011;47863;55.766;37.672;2023-04-24T10:17:52;5.70;;;3.72;;
61905;SDS011;47863;55.766;37.672;2023-04-24T10:20:23;5.90;;;4.32;;
61905;SDS011;47863;55.766;37.672;2023-04-24T10:22:54;5.60;;;3.80;;
61905;SDS011;47863;55.766;37.672;2023-04-24T10:25:21;5.00;;;3.65;;
61905;SDS011;47863;55.766;37.672;2023-04-24T10:27:52;5.13;;;3.92;;
61905;SDS011;47863;55.766;37.672;2023-04-24T10:30:22;4.65;;;3.33;;
61905;SDS011;47863;55.766;37.672;2023-04-24T10:32:48;4.90;;;3.28;;
61905;SDS011;47863;55.766;37.672;2023-04-24T10:35:14;4.82;;;3.70;;
61905;SDS011;47863;55.766;37.672;2023-04-24T10:37:42;5.22;;;3.75;;
61905;SDS011;47863;55.766;37.672;2023-04-24T10:40:19;5.13;;;3.60;;
61905;SDS011;47863;55.766;37.672;2023-04-24T10:42:56;4.97;;;3.47;;
61905;SDS011;47863;55.766;37.672;2023-04-24T10:45:22;4.88;;;3.38;;
61905;SDS011;47863;55.766;37.672;2023-04-24T10:50:18;4.13;;;3.03;;
61905;SDS011;47863;55.766;37.672;2023-04-24T10:52:45;5.03;;;3.30;;
61905;SDS011;47863;55.766;37.672;2023-04-24T10:55:12;4.38;;;3.28;;
61905;SDS011;47863;55.766;37.672;2023-04-24T10:57:40;4.53;;;2.85;;
61905;SDS011;47863;55.766;37.672;2023-04-24T11:00:29;5.60;;;3.42;;
61905;SDS011;47863;55.766;37.672;2023-04-24T11:02:55;5.60;;;3.65;;
61905;SDS011;47863;55.766;37.672;2023-04-24T11:05:22;5.20;;;3.83;;
61905;SDS011;47863;55.766;37.672;2023-04-24T11:10:38;5.32;;;3.38;;
61905;SDS011;47863;55.766;37.672;2023-04-24T11:13:06;3.97;;;2.78;;
61905;SDS011;47863;55.766;37.672;2023-04-24T11:15:31;4.85;;;3.08;;
61905;SDS011;47863;55.766;37.672;2023-04-24T11:17:57;5.47;;;3.38;;
61905;SDS011;47863;55.766;37.672;2023-04-24T11:20:23;5.85;;;3.17;;
61905;SDS011;47863;55.766;37.672;2023-04-24T11:22:52;4.30;;;3.22;;
61905;SDS011;47863;55.766;37.672;2023-04-24T11:25:22;4.38;;;2.97;;
61905;SDS011;47863;55.766;37.672;2023-04-24T11:27:48;7.15;;;3.80;;
61905;SDS011;47863;55.766;37.672;2023-04-24T11:30:19;7.93;;;3.75;;
61905;SDS011;47863;55.766;37.672;2023-04-24T11:32:50;6.18;;;4.00;;
61905;SDS011;47863;55.766;37.672;2023-04-24T11:37:46;5.00;;;3.42;;
61905;SDS011;47863;55.766;37.672;2023-04-24T11:40:16;4.80;;;2.67;;
61905;SDS011;47863;55.766;37.672;2023-04-24T11:42:48;5.18;;;3.05;;
61905;SDS011;47863;55.766;37.672;2023-04-24T11:47:47;4.90;;;3.70;;
61905;SDS011;47863;55.766;37.672;2023-04-24T11:50:15;5.93;;;3.97;;
61905;SDS011;47863;55.766;37.672;2023-04-24T11:52:44;4.72;;;3.65;;
61905;SDS011;47863;55.766;37.672;2023-04-24T11:57:44;6.68;;;2.83;;
61905;SDS011;47863;55.766;37.672;2023-04-24T12:00:17;4.40;;;2.83;;
61905;SDS011;47863;55.766;37.672;2023-04-24T12:02:47;5.00;;;2.90;;
61905;SDS011;47863;55.766;37.672;2023-04-24T12:05:21;4.32;;;3.30;;
61905;SDS011;47863;55.766;37.672;2023-04-24T12:07:48;4.95;;;3.75;;
61905;SDS011;47863;55.766;37.672;2023-04-24T12:10:19;5.05;;;3.45;;
61905;SDS011;47863;55.766;37.672;2023-04-24T12:12:47;7.30;;;3.30;;
61905;SDS011;47863;55.766;37.672;2023-04-24T12:15:15;6.15;;;3.60;;
61905;SDS011;47863;55.766;37.672;2023-04-24T12:17:41;5.05;;;3.58;;
61905;SDS011;47863;55.766;37.672;2023-04-24T12:20:08;5.85;;;4.20;;
61905;SDS011;47863;55.766;37.672;2023-04-24T12:22:51;5.18;;;2.90;;
61905;SDS011;47863;55.766;37.672;2023-04-24T12:25:28;5.97;;;3.05;;
61905;SDS011;47863;55.766;37.672;2023-04-24T12:28:08;4.25;;;3.00;;
61905;SDS011;47863;55.766;37.672;2023-04-24T12:30:42;5.78;;;3.28;;
61905;SDS011;47863;55.766;37.672;2023-04-24T12:33:17;5.00;;;3.13;;
61905;SDS011;47863;55.766;37.672;2023-04-24T12:35:47;5.18;;;3.47;;
61905;SDS011;47863;55.766;37.672;2023-04-24T12:38:16;6.18;;;3.30;;
61905;SDS011;47863;55.766;37.672;2023-04-24T12:40:47;5.20;;;3.42;;
61905;SDS011;47863;55.766;37.672;2023-04-24T12:43:13;5.50;;;3.33;;
61905;SDS011;47863;55.766;37.672;2023-04-24T12:45:40;6.97;;;2.80;;
61905;SDS011;47863;55.766;37.672;2023-04-24T12:48:06;5.68;;;3.05;;
61905;SDS011;47863;55.766;37.672;2023-04-24T12:50:31;5.00;;;3.25;;
61905;SDS011;47863;55.766;37.672;2023-04-24T12:52:57;6.95;;;3.65;;
61905;SDS011;47863;55.766;37.672;2023-04-24T12:55:23;5.53;;;3.33;;
61905;SDS011;47863;55.766;37.672;2023-04-24T12:57:48;5.25;;;3.35;;
61905;SDS011;47863;55.766;37.672;2023-04-24T13:00:14;5.55;;;3.47;;
61905;SDS011;47863;55.766;37.672;2023-04-24T13:02:40;6.15;;;3.55;;
61905;SDS011;47863;55.766;37.672;2023-04-24T13:05:06;4.80;;;3.50;;
61905;SDS011;47863;55.766;37.672;2023-04-24T13:07:32;5.35;;;3.28;;
61905;SDS011;47863;55.766;37.672;2023-04-24T13:09:58;4.80;;;3.20;;
61905;SDS011;47863;55.766;37.672;2023-04-24T13:12:24;5.22;;;2.58;;
61905;SDS011;47863;55.766;37.672;2023-04-24T13:14:50;5.97;;;3.13;;
61905;SDS011;47863;55.766;37.672;2023-04-24T13:17:16;8.05;;;3.58;;
61905;SDS011;47863;55.766;37.672;2023-04-24T13:19:42;5.38;;;3.53;;
61905;SDS011;47863;55.766;37.672;2023-04-24T13:22:09;6.68;;;3.70;;
61905;SDS011;47863;55.766;37.672;2023-04-24T13:24:36;5.55;;;3.33;;
61905;SDS011;47863;55.766;37.672;2023-04-24T13:27:03;6.70;;;3.40;;
61905;SDS011;47863;55.766;37.672;2023-04-24T13:29:29;5.93;;;3.40;;
61905;SDS011;47863;55.766;37.672;2023-04-24T13:31:54;5.43;;;3.13;;
61905;SDS011;47863;55.766;37.672;2023-04-24T13:34:21;4.35;;;2.60;;
61905;SDS011;47863;55.766;37.672;2023-04-24T13:36:48;5.97;;;3.00;;
61905;SDS011;47863;55.766;37.672;2023-04-24T13:39:18;8.25;;;3.35;;
61905;SDS011;47863;55.766;37.672;2023-04-24T13:41:43;4.78;;;3.15;;
61905;SDS011;47863;55.766;37.672;2023-04-24T13:44:10;5.32;;;3.30;;
61905;SDS011;47863;55.766;37.672;2023-04-24T13:46:36;7.40;;;2.88;;
61905;SDS011;47863;55.766;37.672;2023-04-24T13:49:01;6.15;;;3.00;;
61905;SDS011;47863;55.766;37.672;2023-04-24T13:51:28;4.68;;;3.17;;
61905;SDS011;47863;55.766;37.672;2023-04-24T13:53:54;6.22;;;3.00;;
61905;SDS011;47863;55.766;37.672;2023-04-24T13:56:20;5.80;;;3.13;;
61905;SDS011;47863;55.766;37.672;2023-04-24T13:58:46;5.60;;;3.05;;
61905;SDS011;47863;55.766;37.672;2023-04-24T14:01:12;8.60;;;3.17;;
61905;SDS011;47863;55.766;37.672;2023-04-24T14:03:38;4.68;;;2.92;;
61905;SDS011;47863;55.766;37.672;2023-04-24T14:06:04;4.72;;;2.80;;
61905;SDS011;47863;55.766;37.672;2023-04-24T14:08:31;6.28;;;3.00;;
61905;SDS011;47863;55.766;37.672;2023-04-24T14:10:57;4.53;;;2.60;;
61905;SDS011;47863;55.766;37.672;2023-04-24T14:13:23;5.25;;;2.75;;
61905;SDS011;47863;55.766;37.672;2023-04-24T14:15:49;5.82;;;2.88;;
61905;SDS011;47863;55.766;37.672;2023-04-24T14:18:15;4.45;;;2.80;;
61905;SDS011;47863;55.766;37.672;2023-04-24T14:20:40;3.90;;;2.30;;
61905;SDS011;47863;55.766;37.672;2023-04-24T14:23:06;5.18;;;3.05;;
61905;SDS011;47863;55.766;37.672;2023-04-24T14:25:31;4.22;;;2.60;;
61905;SDS011;47863;55.766;37.672;2023-04-24T14:27:57;4.38;;;2.45;;
61905;SDS011;47863;55.766;37.672;2023-04-24T14:30:23;4.93;;;3.00;;
61905;SDS011;47863;55.766;37.672;2023-04-24T14:32:48;4.38;;;2.65;;
61905;SDS011;47863;55.766;37.672;2023-04-24T14:35:14;5.85;;;3.25;;
61905;SDS011;47863;55.766;37.672;2023-04-24T14:37:40;4.43;;;2.47;;
61905;SDS011;47863;55.766;37.672;2023-04-24T14:40:06;5.63;;;2.97;;
61905;SDS011;47863;55.766;37.672;2023-04-24T14:42:33;4.50;;;2.88;;
61905;SDS011;47863;55.766;37.672;2023-04-24T14:44:59;5.75;;;2.30;;